Terminal Aerodrome Forecast
Issued by NWS Brownsville, TX

Home | Current Version | Previous Version | Text Only | Print | Product List | Glossary On
Versions: 1 2 3 4 5 6 7 8 9 10 11 12 13 14 15 16 17
000
FTUS44 KBRO 012344
TAFMFE
TAF
KMFE 012344Z 0200/0224 07010KT P6SM FEW050
     FM020400 05007KT 6SM HZ OVC012
     FM020900 36007KT 5SM BR OVC012
     FM021300 35011G18KT P6SM OVC012
     FM021500 36016G23KT P6SM OVC018 PROB30 0215/0219 4SM -SHRA=

USA.gov is the U.S. government's official web portal to all federal, state and local government web resources and services.